Time;durP1;ratioP1;P1;durP2;ratioP2;P2;SDS_P1;SDS_P2;PMS_P1;PMS_P2;Temp;Humidity;BMP_temperature;BMP_pressure;BME280_temperature;BME280_humidity;BME280_pressure;Samples;Min_cycle;Max_cycle;Signal;HPM_P1;HPM_P2
2022/04/20 00:01:10;;;;;;;122.80;58.20;;;3.30;99.90;;;;;;5028572;28;20022;-51
2022/04/20 00:03:38;;;;;;;132.25;60.78;;;3.20;99.90;;;;;;5028743;28;20028;-53
2022/04/20 00:06:04;;;;;;;;;;;3.10;99.90;;;;;;5029203;28;20016;-52
2022/04/20 00:08:30;;;;;;;138.93;60.67;;;3.20;99.90;;;;;;5028834;28;19909;-53
2022/04/20 00:10:56;;;;;;;127.97;57.90;;;3.20;99.90;;;;;;5027313;28;20030;-53
2022/04/20 00:13:21;;;;;;;130.05;59.28;;;3.20;99.90;;;;;;5028906;28;20059;-52
2022/04/20 00:15:47;;;;;;;122.60;58.15;;;3.10;99.90;;;;;;5028353;28;20438;-52
2022/04/20 00:18:13;;;;;;;138.45;61.92;;;3.00;99.90;;;;;;5028659;28;20362;-54
2022/04/20 00:20:38;;;;;;;138.25;60.70;;;2.90;99.90;;;;;;5028499;28;20120;-52
2022/04/20 00:23:04;;;;;;;141.18;61.60;;;3.00;99.90;;;;;;5028585;28;20076;-52
2022/04/20 00:25:30;;;;;;;136.57;62.08;;;2.90;99.90;;;;;;5028531;28;20025;-52
2022/04/20 00:27:56;;;;;;;143.10;65.82;;;2.80;99.90;;;;;;5025508;28;20029;-51
2022/04/20 00:30:21;;;;;;;149.43;67.28;;;2.80;99.90;;;;;;5028379;28;20025;-52
2022/04/20 00:32:47;;;;;;;146.30;67.47;;;2.70;99.90;;;;;;5028374;28;20029;-52
2022/04/20 00:35:13;;;;;;;137.52;60.80;;;2.50;99.90;;;;;;5028539;28;20033;-53
2022/04/20 00:37:43;;;;;;;128.65;61.63;;;2.50;99.90;;;;;;5028226;28;20033;-53
2022/04/20 00:40:09;;;;;;;130.43;64.05;;;2.40;99.90;;;;;;5028464;28;20029;-52
2022/04/20 00:42:39;;;;;;;147.13;68.07;;;2.20;99.90;;;;;;5028338;28;20037;-52
2022/04/20 00:45:06;;;;;;;161.13;72.35;;;2.20;99.90;;;;;;5028536;28;20021;-53
2022/04/20 00:47:35;;;;;;;148.38;69.80;;;2.10;99.90;;;;;;5028193;28;20029;-52
2022/04/20 00:50:01;;;;;;;135.80;66.03;;;2.30;99.90;;;;;;5027856;28;20061;-51
2022/04/20 00:52:27;;;;;;;144.05;64.57;;;2.40;99.90;;;;;;5028118;28;20072;-51
2022/04/20 00:54:53;;;;;;;132.10;63.38;;;2.30;99.90;;;;;;5028512;28;20049;-53
2022/04/20 00:57:18;;;;;;;136.68;63.13;;;2.30;99.90;;;;;;5027878;28;20285;-51
2022/04/20 00:59:45;;;;;;;139.02;63.78;;;2.30;99.90;;;;;;5027105;28;20037;-51
2022/04/20 01:02:11;;;;;;;141.95;60.47;;;2.30;99.90;;;;;;5027902;28;20073;-52
2022/04/20 01:04:38;;;;;;;135.48;62.60;;;2.20;99.90;;;;;;5018658;28;20048;-51
2022/04/20 01:07:14;;;;;;;137.23;63.55;;;2.20;99.90;;;;;;5028020;28;20091;-53
2022/04/20 01:09:41;;;;;;;135.68;64.43;;;2.10;99.90;;;;;;5028485;28;20734;-52
2022/04/20 01:12:07;;;;;;;132.63;63.28;;;2.10;99.90;;;;;;5028272;28;20083;-52
2022/04/20 01:14:34;;;;;;;146.02;67.00;;;2.00;99.90;;;;;;5026922;28;20492;-53
2022/04/20 01:16:59;;;;;;;134.80;64.35;;;2.00;99.90;;;;;;5028059;28;20030;-54
2022/04/20 01:19:36;;;;;;;140.80;64.85;;;2.00;99.90;;;;;;5028194;28;20510;-51
2022/04/20 01:22:02;;;;;;;134.05;65.20;;;1.90;99.90;;;;;;5028069;28;20132;-51
2022/04/20 01:24:28;;;;;;;145.67;66.50;;;1.70;99.90;;;;;;5028413;28;20030;-53
2022/04/20 01:26:56;;;;;;;136.27;62.70;;;1.70;99.90;;;;;;5028161;28;21670;-52
2022/04/20 01:29:22;;;;;;;143.02;66.57;;;1.80;99.90;;;;;;5014040;28;20116;-52
2022/04/20 01:31:48;;;;;;;125.60;60.43;;;1.90;99.90;;;;;;5031847;28;20133;-53
2022/04/20 01:34:14;;;;;;;134.48;64.78;;;1.80;99.90;;;;;;5032149;28;20376;-51
2022/04/20 01:36:39;;;;;;;154.88;69.18;;;1.90;99.90;;;;;;5032177;28;20468;-51
2022/04/20 01:39:05;;;;;;;164.80;74.53;;;1.80;99.90;;;;;;5031816;28;20072;-52
2022/04/20 01:41:31;;;;;;;150.88;70.50;;;1.80;99.90;;;;;;5031692;28;20033;-53
2022/04/20 01:43:57;;;;;;;160.13;73.30;;;1.80;99.90;;;;;;5031739;28;20036;-53
2022/04/20 01:46:23;;;;;;;165.82;78.25;;;1.80;99.90;;;;;;5031516;28;20029;-53
2022/04/20 01:48:49;;;;;;;167.98;78.32;;;1.70;99.90;;;;;;5031894;28;20041;-53
2022/04/20 01:53:59;;;;;;;160.57;75.00;;;1.80;99.90;;;;;;5031812;28;20468;-52
2022/04/20 01:56:25;;;;;;;153.20;71.93;;;1.90;99.90;;;;;;5031569;28;20465;-52
2022/04/20 01:58:51;;;;;;;155.85;74.97;;;2.00;99.90;;;;;;5031169;28;20028;-53
2022/04/20 02:04:02;;;;;;;145.32;68.10;;;2.00;99.90;;;;;;5030095;28;20056;-53
2022/04/20 02:06:28;;;;;;;150.73;71.70;;;2.10;99.90;;;;;;5029947;28;20696;-51
2022/04/20 02:08:53;;;;;;;139.18;65.70;;;1.90;99.90;;;;;;5031260;28;20040;-51
2022/04/20 02:11:19;;;;;;;143.05;66.32;;;1.90;99.90;;;;;;5031097;28;20105;-50
2022/04/20 02:13:45;;;;;;;142.65;66.95;;;1.80;99.90;;;;;;5030978;28;20021;-52
2022/04/20 02:16:11;;;;;;;146.35;66.35;;;1.80;99.90;;;;;;5030955;28;20430;-52
2022/04/20 02:18:37;;;;;;;139.77;66.25;;;1.80;99.90;;;;;;5031133;28;20108;-51
2022/04/20 02:21:02;;;;;;;152.90;70.47;;;1.80;99.90;;;;;;5030755;28;20041;-51
2022/04/20 02:23:28;;;;;;;153.27;71.45;;;1.70;99.90;;;;;;5031020;28;20103;-52
2022/04/20 02:25:55;;;;;;;145.43;68.40;;;1.60;99.90;;;;;;5030800;28;20404;-52
2022/04/20 02:28:21;;;;;;;141.68;66.50;;;1.70;99.90;;;;;;5029975;28;20028;-53
2022/04/20 02:30:46;;;;;;;143.43;65.95;;;1.70;99.90;;;;;;5030936;28;20026;-52
2022/04/20 02:33:12;;;;;;;151.05;68.30;;;1.60;99.90;;;;;;5029450;28;20026;-53
2022/04/20 02:35:40;;;;;;;147.43;69.47;;;1.60;99.90;;;;;;5030893;28;20025;-52
2022/04/20 02:38:10;;;;;;;156.63;70.43;;;1.60;99.90;;;;;;5029333;28;20048;-53
2022/04/20 02:40:37;;;;;;;135.63;65.80;;;1.60;99.90;;;;;;5030602;28;20021;-52
2022/04/20 02:43:03;;;;;;;153.73;70.65;;;1.60;99.90;;;;;;5030715;28;20112;-52
2022/04/20 02:45:29;;;;;;;153.48;69.55;;;1.50;99.90;;;;;;5030698;28;20528;-52
2022/04/20 02:47:55;;;;;;;156.98;74.18;;;1.50;99.90;;;;;;5030612;28;20033;-51
2022/04/20 02:50:21;;;;;;;158.20;75.32;;;1.50;99.90;;;;;;5030158;28;20571;-52
2022/04/20 02:52:46;;;;;;;161.85;72.88;;;1.50;99.90;;;;;;5030480;28;20049;-52
2022/04/20 02:55:12;;;;;;;148.45;69.85;;;1.50;99.90;;;;;;5030521;28;20489;-50
2022/04/20 02:57:38;;;;;;;154.45;70.72;;;1.20;99.90;;;;;;5030038;28;20041;-52
2022/04/20 03:00:05;;;;;;;156.02;73.80;;;1.00;99.90;;;;;;5030221;28;20112;-52
2022/04/20 03:02:31;;;;;;;161.70;75.85;;;0.90;99.90;;;;;;5030083;28;20485;-52
2022/04/20 03:04:57;;;;;;;153.07;72.95;;;0.80;99.90;;;;;;5030587;28;20033;-52
2022/04/20 03:07:23;;;;;;;156.25;74.30;;;0.80;99.90;;;;;;5028664;28;20026;-52
2022/04/20 03:09:48;;;;;;;161.07;74.38;;;0.80;99.90;;;;;;5030139;28;20495;-51
2022/04/20 03:12:14;;;;;;;148.25;71.38;;;0.70;99.90;;;;;;5030504;28;20029;-52
2022/04/20 03:14:40;;;;;;;152.30;70.35;;;0.70;99.90;;;;;;5029661;28;20036;-53
2022/04/20 03:17:06;;;;;;;158.52;70.13;;;0.70;99.90;;;;;;5029780;28;20108;-53
2022/04/20 03:19:32;;;;;;;140.70;70.75;;;0.60;99.90;;;;;;5030157;28;20176;-52
2022/04/20 03:21:58;;;;;;;161.20;77.00;;;0.50;99.90;;;;;;5029656;28;20504;-53
2022/04/20 03:24:24;;;;;;;157.17;76.03;;;0.40;99.90;;;;;;5028519;28;20492;-51
2022/04/20 03:26:50;;;;;;;156.02;78.40;;;0.40;99.90;;;;;;5029679;28;20022;-52
2022/04/20 03:29:15;;;;;;;159.43;80.05;;;0.40;99.90;;;;;;5030159;28;20025;-53
2022/04/20 03:31:41;;;;;;;153.57;76.22;;;0.40;99.90;;;;;;5029510;28;20025;-53
2022/04/20 03:34:08;;;;;;;158.85;79.95;;;0.50;99.90;;;;;;5029768;28;20025;-52
2022/04/20 03:36:35;;;;;;;155.73;80.43;;;0.50;99.90;;;;;;5011663;28;20561;-52
2022/04/20 03:39:02;;;;;;;161.98;76.10;;;0.40;99.90;;;;;;5029832;28;20030;-51
2022/04/20 03:41:27;;;;;;;146.18;74.20;;;0.40;99.90;;;;;;5029713;28;20388;-52
2022/04/20 03:43:53;;;;;;;139.68;72.72;;;0.40;99.90;;;;;;5029428;28;20539;-50
2022/04/20 03:46:19;;;;;;;137.98;69.82;;;0.40;99.90;;;;;;5029392;28;20033;-53
2022/04/20 03:48:45;;;;;;;136.68;68.40;;;0.40;99.90;;;;;;5029073;28;20469;-51
2022/04/20 03:51:11;;;;;;;125.40;67.88;;;0.40;99.90;;;;;;5028689;28;20057;-53
2022/04/20 03:53:37;;;;;;;134.27;66.93;;;0.40;99.90;;;;;;5029356;28;20033;-51
2022/04/20 03:56:03;;;;;;;121.00;64.87;;;0.40;99.90;;;;;;5029097;28;20036;-52
2022/04/20 03:58:29;;;;;;;133.02;66.80;;;0.50;99.90;;;;;;5029050;28;20113;-53
2022/04/20 04:00:55;;;;;;;126.22;65.60;;;0.50;99.90;;;;;;5028808;28;20117;-52
2022/04/20 04:03:21;;;;;;;132.75;69.05;;;0.60;99.90;;;;;;5029347;28;20032;-52
2022/04/20 04:05:47;;;;;;;129.60;64.68;;;0.60;99.90;;;;;;5027392;28;20440;-53
2022/04/20 04:08:13;;;;;;;126.13;65.68;;;0.70;99.90;;;;;;5029036;28;20026;-51
2022/04/20 04:10:39;;;;;;;131.50;67.22;;;0.80;99.90;;;;;;5029225;28;20030;-51
2022/04/20 04:13:05;;;;;;;120.75;64.13;;;0.80;99.90;;;;;;5029366;28;20116;-53
2022/04/20 04:15:31;;;;;;;117.38;64.97;;;1.00;99.90;;;;;;5009560;28;20576;-53
2022/04/20 04:18:01;;;;;;;116.55;64.57;;;1.00;99.90;;;;;;5009117;28;20029;-51
2022/04/20 04:20:27;;;;;;;129.63;69.15;;;1.10;99.90;;;;;;5009355;28;20033;-51
2022/04/20 04:22:54;;;;;;;132.20;67.50;;;1.00;99.90;;;;;;5009024;28;20076;-53
2022/04/20 04:25:20;;;;;;;125.50;70.53;;;1.10;99.90;;;;;;5024354;28;20030;-52
2022/04/20 04:27:46;;;;;;;129.80;71.55;;;1.00;99.90;;;;;;5009052;28;20457;-52
2022/04/20 04:30:12;;;;;;;132.43;72.53;;;1.00;99.90;;;;;;5009171;28;20026;-53
2022/04/20 04:32:38;;;;;;;134.18;69.22;;;1.10;99.90;;;;;;5009296;28;20042;-51
2022/04/20 04:35:04;;;;;;;129.20;69.88;;;1.10;99.90;;;;;;5008865;28;20041;-51
2022/04/20 04:37:30;;;;;;;134.75;68.50;;;1.30;99.90;;;;;;5009065;28;20054;-51
2022/04/20 04:39:56;;;;;;;122.20;69.68;;;1.40;99.90;;;;;;5009110;28;20022;-52
2022/04/20 04:42:22;;;;;;;128.48;70.10;;;1.40;99.90;;;;;;5008808;28;20038;-51
2022/04/20 04:44:48;;;;;;;131.55;67.53;;;1.40;99.90;;;;;;5009200;28;20037;-51
2022/04/20 04:49:58;;;;;;;127.32;68.55;;;1.70;99.90;;;;;;5009228;28;20109;-52
2022/04/20 04:52:24;;;;;;;127.97;68.93;;;1.50;99.90;;;;;;5008738;28;20038;-53
2022/04/20 04:54:50;;;;;;;126.20;67.93;;;1.50;99.90;;;;;;5022833;28;20275;-52
2022/04/20 04:57:16;;;;;;;119.25;67.75;;;1.60;99.90;;;;;;5028351;28;20022;-52
2022/04/20 04:59:43;;;;;;;120.30;67.57;;;1.60;99.90;;;;;;5027205;28;20060;-54
2022/04/20 05:02:09;;;;;;;118.03;62.30;;;1.60;99.90;;;;;;5028248;28;20040;-51
2022/04/20 05:04:36;;;;;;;117.03;62.53;;;1.70;99.90;;;;;;5032748;28;20029;-52
2022/04/20 05:07:02;;;;;;;108.30;58.40;;;1.80;99.90;;;;;;5032337;28;20026;-51
2022/04/20 05:09:28;;;;;;;115.57;61.07;;;1.80;99.90;;;;;;5032161;28;20048;-51
2022/04/20 05:11:54;;;;;;;110.00;60.30;;;1.80;99.90;;;;;;5032352;28;20272;-52
2022/04/20 05:14:20;;;;;;;107.93;59.80;;;1.80;99.90;;;;;;5032183;28;20533;-54
2022/04/20 05:16:46;;;;;;;104.53;57.72;;;1.60;99.90;;;;;;5032234;28;20026;-52
2022/04/20 05:19:12;;;;;;;102.80;59.72;;;1.70;99.90;;;;;;5032020;28;20037;-52
2022/04/20 05:21:38;;;;;;;100.80;57.75;;;1.60;99.90;;;;;;5032121;28;20077;-53
2022/04/20 05:24:04;;;;;;;107.07;57.42;;;1.60;99.90;;;;;;5032204;28;20333;-53
2022/04/20 05:26:30;;;;;;;105.20;59.10;;;1.70;99.90;;;;;;5031740;28;20556;-52
2022/04/20 05:28:56;;;;;;;105.45;61.90;;;1.60;99.90;;;;;;5032366;28;20180;-53
2022/04/20 05:31:22;;;;;;;101.28;57.95;;;1.80;99.90;;;;;;5032032;28;20033;-52
2022/04/20 05:33:49;;;;;;;104.25;57.95;;;1.70;99.90;;;;;;5031881;28;20026;-52
2022/04/20 05:36:15;;;;;;;102.60;57.70;;;1.70;99.90;;;;;;5030761;28;20444;-53
2022/04/20 05:41:42;;;;;;;103.47;57.17;;;1.90;99.90;;;;;;5021069;28;20401;-51
2022/04/20 05:44:10;;;;;;;103.25;59.33;;;2.00;99.90;;;;;;5031996;28;20033;-52
2022/04/20 05:46:36;;;;;;;98.80;56.45;;;1.90;99.90;;;;;;5031875;28;20025;-52
2022/04/20 05:49:02;;;;;;;107.95;56.80;;;1.90;99.90;;;;;;5030374;28;20033;-51
2022/04/20 05:51:28;;;;;;;102.35;56.33;;;1.90;99.90;;;;;;5031517;28;20132;-52
2022/04/20 05:53:53;;;;;;;99.30;56.45;;;1.90;99.90;;;;;;5031512;28;20604;-51
2022/04/20 05:56:19;;;;;;;98.13;54.25;;;1.90;99.90;;;;;;5031762;28;20493;-51
2022/04/20 05:58:47;;;;;;;98.20;55.47;;;1.90;99.90;;;;;;5031775;28;20672;-53
2022/04/20 06:01:14;;;;;;;102.90;54.80;;;1.90;99.90;;;;;;5031000;28;20037;-51
2022/04/20 06:03:40;;;;;;;94.07;52.58;;;1.90;99.90;;;;;;5031598;28;20082;-51
2022/04/20 06:06:06;;;;;;;93.50;53.90;;;2.00;99.90;;;;;;5031534;28;20029;-50
2022/04/20 06:08:32;;;;;;;95.45;54.08;;;2.00;99.90;;;;;;5031477;28;20488;-52
2022/04/20 06:10:58;;;;;;;93.30;54.05;;;2.10;99.90;;;;;;5031097;28;20029;-52
2022/04/20 06:13:24;;;;;;;95.18;54.33;;;2.10;99.90;;;;;;5031088;28;20055;-52
2022/04/20 06:15:51;;;;;;;93.85;50.95;;;2.20;99.90;;;;;;5031336;28;20026;-51
2022/04/20 06:18:16;;;;;;;93.55;54.42;;;2.20;99.90;;;;;;5031486;28;20034;-53
2022/04/20 06:20:42;;;;;;;97.35;53.95;;;2.30;99.90;;;;;;5031020;28;20033;-52
2022/04/20 06:23:08;;;;;;;90.10;52.50;;;2.30;99.90;;;;;;5031424;28;20518;-52
2022/04/20 06:25:33;;;;;;;92.35;55.33;;;2.30;99.90;;;;;;5029113;28;20030;-52
2022/04/20 06:28:00;;;;;;;97.63;55.08;;;2.30;99.90;;;;;;5029392;28;20037;-52
2022/04/20 06:30:26;;;;;;;91.25;52.40;;;2.40;99.90;;;;;;5028333;28;20045;-52
2022/04/20 06:32:52;;;;;;;86.50;52.67;;;2.50;99.90;;;;;;5029725;28;20025;-51
2022/04/20 06:35:18;;;;;;;95.07;52.72;;;2.60;99.90;;;;;;5030209;28;20915;-53
2022/04/20 06:37:43;;;;;;;82.80;46.83;;;2.60;99.90;;;;;;5029612;28;20443;-53
2022/04/20 06:40:09;;;;;;;83.35;47.72;;;2.70;99.90;;;;;;5029615;28;20037;-53
2022/04/20 06:42:35;;;;;;;88.70;48.83;;;2.70;99.90;;;;;;5029491;28;20548;-52
2022/04/20 06:45:02;;;;;;;77.82;44.63;;;2.70;99.90;;;;;;5028832;28;20030;-51
2022/04/20 06:47:29;;;;;;;76.43;45.45;;;2.70;99.90;;;;;;5029879;28;20099;-53
2022/04/20 06:49:55;;;;;;;79.82;46.65;;;2.70;99.90;;;;;;5030051;28;20663;-53
2022/04/20 07:00:34;;;;;;;76.32;41.88;;;2.90;99.90;;;;;;5026856;28;20385;-52
2022/04/20 07:03:01;;;;;;;80.65;43.58;;;2.80;99.90;;;;;;5028562;28;20465;-54
2022/04/20 07:05:27;;;;;;;76.20;42.80;;;2.90;99.90;;;;;;5028905;28;20389;-51
2022/04/20 07:07:53;;;;;;;72.13;42.05;;;2.90;99.90;;;;;;5029138;28;20033;-51
2022/04/20 07:10:19;;;;;;;70.88;40.65;;;2.90;99.90;;;;;;5028782;28;20021;-51
2022/04/20 07:12:44;;;;;;;73.75;43.78;;;2.90;99.90;;;;;;5028812;28;20030;-51
2022/04/20 07:15:10;;;;;;;73.65;43.17;;;3.00;99.90;;;;;;5028733;28;20081;-53
2022/04/20 07:17:36;;;;;;;75.20;42.72;;;3.00;99.90;;;;;;5030479;28;20389;-52
2022/04/20 07:20:04;;;;;;;68.38;40.70;;;3.10;99.90;;;;;;5029858;28;20432;-52
2022/04/20 07:22:29;;;;;;;74.53;41.00;;;3.10;99.90;;;;;;5030030;28;20065;-53
2022/04/20 07:24:55;;;;;;;79.88;42.08;;;3.10;99.90;;;;;;5024280;28;20033;-52
2022/04/20 07:27:21;;;;;;;72.07;42.47;;;3.10;99.90;;;;;;5029595;28;20053;-52
2022/04/20 07:29:46;;;;;;;73.63;41.63;;;3.20;99.90;;;;;;5027338;28;20064;-52
2022/04/20 07:32:12;;;;;;;71.45;40.55;;;3.30;99.90;;;;;;5029573;28;20056;-52
2022/04/20 07:34:38;;;;;;;68.13;39.25;;;3.20;99.90;;;;;;5029486;28;20034;-53
2022/04/20 07:37:04;;;;;;;64.07;38.35;;;3.30;99.90;;;;;;5028172;28;20443;-50
2022/04/20 07:39:29;;;;;;;67.75;38.72;;;3.30;99.90;;;;;;5027262;28;20029;-52
2022/04/20 07:41:55;;;;;;;71.13;38.28;;;3.30;99.90;;;;;;5029171;28;20042;-54
2022/04/20 07:44:21;;;;;;;71.60;39.75;;;3.40;99.90;;;;;;5027933;28;20534;-53
2022/04/20 07:46:47;;;;;;;64.50;37.42;;;3.40;99.90;;;;;;5028171;28;20025;-52
2022/04/20 07:51:57;;;;;;;77.35;38.63;;;3.50;99.90;;;;;;5025863;28;20099;-50
2022/04/20 07:54:22;;;;;;;67.43;37.63;;;3.50;99.90;;;;;;5028135;28;20033;-50
2022/04/20 07:56:49;;;;;;;66.35;36.50;;;3.60;99.90;;;;;;5028200;28;20087;-51
2022/04/20 07:59:14;;;;;;;65.00;36.78;;;3.60;99.90;;;;;;5025401;28;20075;-50
2022/04/20 08:01:40;;;;;;;63.72;35.35;;;3.60;99.90;;;;;;5028100;28;20432;-51
2022/04/20 08:04:06;;;;;;;63.35;36.30;;;3.70;99.90;;;;;;5028140;28;20129;-52
2022/04/20 08:06:32;;;;;;;55.97;33.03;;;3.70;99.90;;;;;;5027882;28;20571;-50
2022/04/20 08:08:58;;;;;;;61.42;33.92;;;3.70;99.90;;;;;;5027664;28;20043;-51
2022/04/20 08:11:25;;;;;;;59.75;33.95;;;3.70;99.90;;;;;;5027662;28;20041;-51
2022/04/20 08:16:34;;;;;;;56.70;33.90;;;3.70;99.90;;;;;;5025567;28;20028;-50
2022/04/20 08:19:00;;;;;;;56.78;31.75;;;3.70;99.90;;;;;;5027021;28;20026;-52
2022/04/20 08:21:26;;;;;;;57.03;32.55;;;3.80;99.90;;;;;;5027580;28;20096;-50
2022/04/20 08:23:52;;;;;;;59.10;33.33;;;3.90;99.90;;;;;;5027576;28;20095;-51
2022/04/20 08:26:18;;;;;;;49.60;30.45;;;3.90;99.90;;;;;;5022607;28;20722;-51
2022/04/20 08:28:43;;;;;;;49.80;30.63;;;4.00;99.90;;;;;;5027614;28;20041;-52
2022/04/20 08:31:09;;;;;;;55.47;32.33;;;4.00;99.90;;;;;;5028264;28;20488;-51
2022/04/20 08:33:35;;;;;;;45.38;27.45;;;4.10;99.90;;;;;;5028451;28;20651;-50
2022/04/20 08:36:00;;;;;;;50.67;30.65;;;4.10;99.90;;;;;;5027538;28;20029;-52
2022/04/20 08:38:26;;;;;;;63.03;32.08;;;4.20;99.90;;;;;;5027135;28;20022;-52
2022/04/20 08:40:54;;;;;;;55.30;30.23;;;4.30;99.90;;;;;;5027164;28;20036;-51
2022/04/20 08:43:20;;;;;;;46.13;28.45;;;4.30;99.90;;;;;;5026663;28;20033;-52
2022/04/20 08:45:49;;;;;;;42.72;26.85;;;4.30;99.90;;;;;;5027978;28;20025;-53
2022/04/20 08:48:15;;;;;;;43.25;26.63;;;4.40;99.90;;;;;;5026987;28;20400;-50
2022/04/20 08:50:41;;;;;;;47.85;28.25;;;4.50;99.90;;;;;;5027266;28;20038;-50
2022/04/20 08:53:08;;;;;;;41.58;25.50;;;4.50;99.90;;;;;;5027296;28;20045;-51
2022/04/20 08:55:33;;;;;;;44.10;27.23;;;4.60;99.90;;;;;;5027598;28;20091;-51
2022/04/20 08:58:01;;;;;;;44.55;27.00;;;4.70;99.90;;;;;;5027405;28;20041;-52
2022/04/20 09:00:27;;;;;;;45.58;27.33;;;4.70;99.90;;;;;;5027216;28;20029;-53
2022/04/20 09:02:57;;;;;;;43.00;24.73;;;4.80;99.90;;;;;;5027008;28;20033;-52
2022/04/20 09:05:25;;;;;;;40.22;25.40;;;4.90;99.90;;;;;;5028681;28;20032;-52
2022/04/20 09:07:51;;;;;;;36.72;24.90;;;4.90;99.90;;;;;;5027646;28;20034;-52
2022/04/20 09:10:18;;;;;;;40.22;23.52;;;4.90;99.90;;;;;;5027574;28;20654;-52
2022/04/20 09:12:45;;;;;;;39.42;25.52;;;4.90;99.90;;;;;;5028059;28;20044;-52
2022/04/20 09:15:14;;;;;;;41.50;25.30;;;5.00;99.90;;;;;;5028241;28;20029;-51
2022/04/20 09:17:45;;;;;;;41.00;24.23;;;5.00;99.90;;;;;;5027880;28;20108;-51
2022/04/20 09:20:17;;;;;;;43.53;25.85;;;5.10;99.90;;;;;;5025922;28;20493;-52
2022/04/20 09:22:57;;;;;;;47.35;25.50;;;5.20;99.90;;;;;;5027620;28;20068;-50
2022/04/20 09:25:36;;;;;;;42.15;26.42;;;5.20;99.90;;;;;;5022932;28;20918;-53
2022/04/20 09:28:06;;;;;;;43.33;25.73;;;5.30;99.90;;;;;;5008063;28;20033;-52
2022/04/20 09:30:38;;;;;;;39.28;24.33;;;5.40;99.90;;;;;;5007883;28;20026;-52
2022/04/20 09:33:07;;;;;;;38.85;22.88;;;5.40;99.90;;;;;;5008394;28;20033;-52
2022/04/20 09:35:40;;;;;;;43.60;24.17;;;5.50;99.90;;;;;;5008305;28;20042;-52
2022/04/20 09:38:07;;;;;;;42.20;24.38;;;5.60;99.90;;;;;;5008671;28;20565;-55
2022/04/20 10:51:51;;;;;;;44.95;19.10;;;6.70;99.90;;;;;;5140242;27;21051;-45
2022/04/20 10:54:29;;;;;;;22.65;15.25;;;7.60;99.90;;;;;;5125544;28;20125;-47
2022/04/20 10:57:02;;;;;;;27.60;16.38;;;7.70;99.90;;;;;;5123452;28;20919;-47
2022/04/20 10:59:30;;;;;;;23.13;14.10;;;7.60;99.90;;;;;;5126455;28;20028;-50
2022/04/20 11:01:59;;;;;;;24.90;15.30;;;7.60;99.90;;;;;;5126966;28;20066;-52
2022/04/20 11:04:51;;;;;;;31.73;17.00;;;7.70;99.90;;;;;;5120368;28;20020;-52
2022/04/20 11:07:23;;;;;;;27.42;14.25;;;7.80;99.90;;;;;;5115822;28;20045;-52
2022/04/20 11:09:56;;;;;;;24.92;15.50;;;7.50;99.90;;;;;;5124859;28;20080;-52
2022/04/20 11:18:39;;;;;;;26.27;14.18;;;7.50;99.90;;;;;;5124950;28;20033;-50
2022/04/20 11:21:08;;;;;;;22.63;15.50;;;7.60;99.90;;;;;;5125784;28;20063;-52
2022/04/20 11:23:58;;;;;;;23.83;16.60;;;7.60;99.90;;;;;;5126876;28;20027;-51
2022/04/20 11:26:26;;;;;;;19.17;13.25;;;7.60;99.90;;;;;;5126305;28;20118;-51
2022/04/20 11:28:52;;;;;;;25.83;14.85;;;7.50;99.90;;;;;;5126297;28;20032;-51
2022/04/20 11:31:18;;;;;;;22.35;13.25;;;7.50;99.90;;;;;;5119117;28;20036;-50
2022/04/20 11:33:44;;;;;;;20.00;12.55;;;7.50;99.90;;;;;;5125078;28;20153;-52
2022/04/20 11:36:12;;;;;;;18.58;12.52;;;7.50;99.90;;;;;;5124581;28;20506;-50
2022/04/20 11:38:47;;;;;;;22.50;14.50;;;7.40;99.90;;;;;;5125134;27;20042;-50
2022/04/20 11:41:13;;;;;;;20.25;13.27;;;7.40;99.90;;;;;;5125248;27;20038;-52
2022/04/20 11:43:40;;;;;;;22.00;14.68;;;7.40;99.90;;;;;;5123974;27;20116;-51
2022/04/20 11:46:10;;;;;;;22.50;14.75;;;7.40;99.90;;;;;;5123989;27;20406;-51
2022/04/20 11:48:36;;;;;;;21.75;13.63;;;7.40;99.90;;;;;;5124536;28;20027;-52
2022/04/20 11:51:07;;;;;;;23.67;14.52;;;7.40;99.90;;;;;;5120776;28;20055;-51
2022/04/20 11:53:41;;;;;;;28.90;15.32;;;7.40;99.90;;;;;;5112173;28;20106;-52
2022/04/20 11:56:10;;;;;;;21.88;15.15;;;7.50;99.90;;;;;;5112201;28;20100;-51
2022/04/20 11:58:39;;;;;;;20.60;13.25;;;7.50;99.90;;;;;;5110605;28;20035;-50
2022/04/20 12:01:06;;;;;;;23.08;15.18;;;7.50;99.90;;;;;;5109856;27;20039;-51
2022/04/20 12:03:42;;;;;;;;;;;7.50;99.90;;;;;;5110648;28;20046;-51
2022/04/20 12:06:09;;;;;;;24.98;14.90;;;7.60;99.90;;;;;;5109815;28;19914;-52
2022/04/20 12:08:36;;;;;;;;;;;7.50;99.90;;;;;;5110527;28;20725;-50
2022/04/20 12:11:07;;;;;;;29.42;16.75;;;7.60;99.90;;;;;;5109614;28;19912;-51
2022/04/20 12:13:33;;;;;;;24.65;15.05;;;7.60;99.90;;;;;;5109015;28;20035;-51
2022/04/20 12:16:08;;;;;;;26.20;14.93;;;7.60;99.90;;;;;;5109728;28;20035;-52
2022/04/20 12:18:36;;;;;;;20.10;14.40;;;7.60;99.90;;;;;;5109796;28;20461;-50
2022/04/20 12:21:43;;;;;;;21.13;14.48;;;7.60;99.90;;;;;;5110653;28;20043;-52
2022/04/20 12:24:20;;;;;;;23.58;16.00;;;7.50;99.90;;;;;;5108462;28;20026;-53
2022/04/20 12:26:47;;;;;;;20.23;14.45;;;7.50;99.90;;;;;;5107804;28;20020;-50
2022/04/20 12:29:14;;;;;;;25.00;16.83;;;7.50;99.90;;;;;;5092895;28;20063;-49
2022/04/20 12:31:44;;;;;;;;;;;7.50;99.90;;;;;;5108645;28;20032;-51
2022/04/20 12:34:15;;;;;;;23.80;16.70;;;7.50;99.90;;;;;;5111025;28;19910;-52
2022/04/20 12:37:03;;;;;;;23.70;15.82;;;7.50;99.90;;;;;;5111518;28;20109;-51
2022/04/20 12:39:42;;;;;;;26.42;17.45;;;7.50;99.90;;;;;;5108687;28;20465;-51
2022/04/20 12:42:14;;;;;;;23.10;16.90;;;7.40;99.90;;;;;;5109958;28;20100;-50
2022/04/20 12:44:47;;;;;;;20.73;14.52;;;7.40;99.90;;;;;;5110014;28;20016;-52
2022/04/20 12:47:14;;;;;;;23.67;15.65;;;7.30;99.90;;;;;;5109863;28;20054;-50
2022/04/20 12:49:44;;;;;;;22.25;15.75;;;7.30;99.90;;;;;;5108965;28;20482;-52
2022/04/20 12:52:15;;;;;;;33.58;21.95;;;7.30;99.90;;;;;;5109834;28;20020;-52
2022/04/20 12:55:21;;;;;;;25.50;17.92;;;7.30;99.90;;;;;;5090992;28;20023;-52
2022/04/20 13:03:34;;;;;;;30.15;17.48;;;7.40;99.90;;;;;;5095048;28;20070;-51
2022/04/20 13:06:00;;;;;;;22.30;15.65;;;7.40;99.90;;;;;;5110920;28;20106;-51
2022/04/20 13:08:26;;;;;;;28.08;15.43;;;7.40;99.90;;;;;;5110072;28;20028;-51
2022/04/20 13:10:52;;;;;;;23.70;16.40;;;7.40;99.90;;;;;;5110594;28;20034;-50
2022/04/20 13:13:22;;;;;;;22.08;15.25;;;7.30;99.90;;;;;;5110380;28;20161;-51
2022/04/20 13:15:48;;;;;;;21.65;16.23;;;7.30;99.90;;;;;;5109271;28;20039;-52
2022/04/20 13:18:13;;;;;;;25.35;16.85;;;7.30;99.90;;;;;;5109785;28;20019;-51
2022/04/20 13:20:39;;;;;;;26.50;17.27;;;7.30;99.90;;;;;;5108981;28;20036;-51
2022/04/20 13:23:05;;;;;;;25.67;16.73;;;7.30;99.90;;;;;;5108763;28;20068;-51
2022/04/20 13:28:15;;;;;;;23.67;16.02;;;7.30;99.90;;;;;;5108721;28;20073;-52
2022/04/20 13:30:41;;;;;;;22.55;15.20;;;7.20;99.90;;;;;;5103440;28;20459;-51
2022/04/20 13:33:10;;;;;;;24.90;17.02;;;7.20;99.90;;;;;;5108702;28;20111;-49
2022/04/20 13:35:37;;;;;;;27.77;15.98;;;7.10;99.90;;;;;;5108268;28;20030;-51
2022/04/20 13:38:03;;;;;;;25.77;16.42;;;7.10;99.90;;;;;;5108859;28;20054;-50
2022/04/20 13:40:30;;;;;;;29.15;18.55;;;7.10;99.90;;;;;;5108574;28;20746;-50
2022/04/20 13:42:57;;;;;;;23.88;16.45;;;7.20;99.90;;;;;;5108465;28;20032;-51
2022/04/20 13:45:23;;;;;;;22.47;16.03;;;7.20;99.90;;;;;;5108948;28;20035;-51
2022/04/20 13:47:49;;;;;;;23.13;16.30;;;7.20;99.90;;;;;;5107318;28;20833;-50
2022/04/20 13:50:16;;;;;;;28.33;16.00;;;7.20;99.90;;;;;;5106702;28;20083;-50
2022/04/20 13:52:42;;;;;;;21.63;15.48;;;7.20;99.90;;;;;;5108703;28;20066;-50
2022/04/20 13:55:09;;;;;;;25.30;14.95;;;7.10;99.90;;;;;;5108608;28;20051;-51
2022/04/20 13:57:38;;;;;;;26.25;14.70;;;7.10;99.90;;;;;;5108348;28;20035;-50
2022/04/20 14:00:09;;;;;;;23.83;17.67;;;7.10;99.90;;;;;;5108567;28;20080;-50
2022/04/20 14:02:35;;;;;;;42.30;24.63;;;7.10;99.90;;;;;;5106591;28;20035;-51
2022/04/20 14:05:02;;;;;;;43.58;23.20;;;7.10;99.90;;;;;;5108504;28;20020;-51
2022/04/20 14:07:28;;;;;;;36.20;17.07;;;7.10;99.90;;;;;;5108576;28;20028;-50
2022/04/20 14:09:54;;;;;;;27.40;15.93;;;7.00;99.90;;;;;;5107545;28;20091;-50
2022/04/20 14:12:22;;;;;;;56.40;31.45;;;7.00;99.90;;;;;;5109511;28;20107;-51
2022/04/20 14:14:47;;;;;;;27.10;14.02;;;7.00;99.90;;;;;;5107663;28;20152;-51
2022/04/20 14:17:15;;;;;;;29.23;16.27;;;7.00;99.90;;;;;;5107476;28;20111;-50
2022/04/20 14:19:43;;;;;;;21.13;14.02;;;6.90;99.90;;;;;;5107698;28;20051;-50
2022/04/20 14:22:10;;;;;;;20.45;15.10;;;6.90;99.90;;;;;;5107885;28;20057;-50
2022/04/20 14:24:36;;;;;;;18.15;12.82;;;6.90;99.90;;;;;;5107522;28;20503;-50